sensor_id;sensor_type;location;lat;lon;timestamp;pressure;altitude;pressure_sealevel;temperature;humidity
38452;BME280;24231;52.514;13.438;2023-04-12T00:02:08;100753.87;;;9.23;54.79
38452;BME280;24231;52.514;13.438;2023-04-12T00:04:35;100749.87;;;8.38;56.24
38452;BME280;24231;52.514;13.438;2023-04-12T00:07:04;100742.45;;;8.78;54.77
38452;BME280;24231;52.514;13.438;2023-04-12T00:09:32;100738.96;;;8.21;56.71
38452;BME280;24231;52.514;13.438;2023-04-12T00:12:00;100732.53;;;8.54;55.72
38452;BME280;24231;52.514;13.438;2023-04-12T00:14:28;100742.16;;;7.20;60.61
38452;BME280;24231;52.514;13.438;2023-04-12T00:16:55;100740.23;;;7.88;57.99
38452;BME280;24231;52.514;13.438;2023-04-12T00:19:22;100737.45;;;8.35;56.35
38452;BME280;24231;52.514;13.438;2023-04-12T00:21:50;100749.66;;;7.69;59.35
38452;BME280;24231;52.514;13.438;2023-04-12T00:24:17;100747.67;;;7.72;58.95
38452;BME280;24231;52.514;13.438;2023-04-12T00:26:44;100738.69;;;8.43;56.89
38452;BME280;24231;52.514;13.438;2023-04-12T00:29:12;100738.68;;;8.10;57.12
38452;BME280;24231;52.514;13.438;2023-04-12T00:31:39;100731.78;;;8.25;57.62
38452;BME280;24231;52.514;13.438;2023-04-12T00:34:07;100730.47;;;8.79;55.26
38452;BME280;24231;52.514;13.438;2023-04-12T00:36:38;100743.34;;;7.08;60.57
38452;BME280;24231;52.514;13.438;2023-04-12T00:39:05;100736.24;;;8.16;56.95
38452;BME280;24231;52.514;13.438;2023-04-12T00:41:35;100732.09;;;9.08;52.99
38452;BME280;24231;52.514;13.438;2023-04-12T00:44:02;100735.06;;;9.39;52.68
38452;BME280;24231;52.514;13.438;2023-04-12T00:46:29;100734.08;;;8.02;55.40
38452;BME280;24231;52.514;13.438;2023-04-12T00:48:57;100731.77;;;8.26;55.01
38452;BME280;24231;52.514;13.438;2023-04-12T00:51:25;100733.69;;;9.80;51.03
38452;BME280;24231;52.514;13.438;2023-04-12T00:53:55;100732.87;;;10.63;49.11
38452;BME280;24231;52.514;13.438;2023-04-12T00:56:23;100731.05;;;10.09;49.88
38452;BME280;24231;52.514;13.438;2023-04-12T00:58:51;100725.79;;;10.65;48.75
38452;BME280;24231;52.514;13.438;2023-04-12T01:01:18;100723.27;;;10.63;48.84
38452;BME280;24231;52.514;13.438;2023-04-12T01:03:46;100726.80;;;10.51;48.85
38452;BME280;24231;52.514;13.438;2023-04-12T01:06:19;100726.01;;;10.04;50.23
38452;BME280;24231;52.514;13.438;2023-04-12T01:08:55;100721.14;;;10.35;49.58
38452;BME280;24231;52.514;13.438;2023-04-12T01:11:30;100718.01;;;10.20;49.69
38452;BME280;24231;52.514;13.438;2023-04-12T01:14:04;100715.56;;;10.08;50.38
38452;BME280;24231;52.514;13.438;2023-04-12T01:16:37;100716.38;;;9.46;51.64
38452;BME280;24231;52.514;13.438;2023-04-12T01:19:23;100710.47;;;8.30;54.78
38452;BME280;24231;52.514;13.438;2023-04-12T01:22:09;100709.33;;;9.77;51.45
38452;BME280;24231;52.514;13.438;2023-04-12T01:24:45;100702.53;;;10.10;50.13
38452;BME280;24231;52.514;13.438;2023-04-12T01:27:28;100705.76;;;8.67;53.64
38452;BME280;24231;52.514;13.438;2023-04-12T01:30:00;100708.48;;;7.97;55.62
38452;BME280;24231;52.514;13.438;2023-04-12T01:32:29;100709.02;;;7.80;56.36
38452;BME280;24231;52.514;13.438;2023-04-12T01:34:58;100704.27;;;7.77;56.32
38452;BME280;24231;52.514;13.438;2023-04-12T01:37:28;100698.68;;;9.06;53.83
38452;BME280;24231;52.514;13.438;2023-04-12T01:39:55;100694.05;;;9.17;53.40
38452;BME280;24231;52.514;13.438;2023-04-12T01:42:22;100691.81;;;9.68;51.77
38452;BME280;24231;52.514;13.438;2023-04-12T01:44:50;100695.17;;;7.26;58.57
38452;BME280;24231;52.514;13.438;2023-04-12T01:47:17;100691.01;;;7.76;57.14
38452;BME280;24231;52.514;13.438;2023-04-12T01:50:02;100683.95;;;8.90;53.58
38452;BME280;24231;52.514;13.438;2023-04-12T01:52:37;100689.09;;;8.02;55.39
38452;BME280;24231;52.514;13.438;2023-04-12T01:55:05;100689.50;;;8.61;53.80
38452;BME280;24231;52.514;13.438;2023-04-12T01:57:34;100690.10;;;8.48;54.18
38452;BME280;24231;52.514;13.438;2023-04-12T02:00:05;100693.47;;;7.75;56.36
38452;BME280;24231;52.514;13.438;2023-04-12T02:02:34;100682.96;;;8.99;53.10
38452;BME280;24231;52.514;13.438;2023-04-12T02:05:02;100680.79;;;8.08;55.60
38452;BME280;24231;52.514;13.438;2023-04-12T02:07:30;100683.75;;;8.26;55.12
38452;BME280;24231;52.514;13.438;2023-04-12T02:09:57;100684.23;;;8.30;55.23
38452;BME280;24231;52.514;13.438;2023-04-12T02:12:25;100681.59;;;8.77;53.96
38452;BME280;24231;52.514;13.438;2023-04-12T02:14:52;100674.85;;;8.81;53.35
38452;BME280;24231;52.514;13.438;2023-04-12T02:17:20;100668.09;;;9.21;52.49
38452;BME280;24231;52.514;13.438;2023-04-12T02:19:47;100664.35;;;8.74;53.58
38452;BME280;24231;52.514;13.438;2023-04-12T02:22:14;100669.16;;;8.89;53.04
38452;BME280;24231;52.514;13.438;2023-04-12T02:24:41;100667.70;;;8.89;53.67
38452;BME280;24231;52.514;13.438;2023-04-12T02:27:09;100658.77;;;8.66;54.20
38452;BME280;24231;52.514;13.438;2023-04-12T02:29:36;100652.81;;;9.04;52.85
38452;BME280;24231;52.514;13.438;2023-04-12T02:32:04;100657.12;;;7.32;57.19
38452;BME280;24231;52.514;13.438;2023-04-12T02:34:31;100656.94;;;7.62;56.29
38452;BME280;24231;52.514;13.438;2023-04-12T02:36:59;100651.86;;;7.97;55.72
38452;BME280;24231;52.514;13.438;2023-04-12T02:39:26;100649.61;;;8.76;53.58
38452;BME280;24231;52.514;13.438;2023-04-12T02:41:54;100651.66;;;8.12;54.03
38452;BME280;24231;52.514;13.438;2023-04-12T02:44:21;100647.07;;;8.33;54.39
38452;BME280;24231;52.514;13.438;2023-04-12T02:46:49;100640.92;;;8.77;52.78
38452;BME280;24231;52.514;13.438;2023-04-12T02:49:16;100633.04;;;8.51;54.20
38452;BME280;24231;52.514;13.438;2023-04-12T02:51:44;100627.84;;;8.30;53.86
38452;BME280;24231;52.514;13.438;2023-04-12T02:54:11;100632.65;;;6.71;58.10
38452;BME280;24231;52.514;13.438;2023-04-12T02:56:39;100633.04;;;7.31;56.79
38452;BME280;24231;52.514;13.438;2023-04-12T02:59:06;100631.04;;;8.35;53.90
38452;BME280;24231;52.514;13.438;2023-04-12T03:01:33;100630.11;;;8.15;53.90
38452;BME280;24231;52.514;13.438;2023-04-12T03:04:01;100623.70;;;8.75;52.67
38452;BME280;24231;52.514;13.438;2023-04-12T03:06:28;100619.42;;;8.79;52.32
38452;BME280;24231;52.514;13.438;2023-04-12T03:08:56;100622.32;;;8.32;53.75
38452;BME280;24231;52.514;13.438;2023-04-12T03:11:23;100614.40;;;7.99;54.67
38452;BME280;24231;52.514;13.438;2023-04-12T03:13:50;100606.55;;;8.31;53.46
38452;BME280;24231;52.514;13.438;2023-04-12T03:16:20;100598.40;;;8.71;52.68
38452;BME280;24231;52.514;13.438;2023-04-12T03:18:47;100595.36;;;8.74;52.60
38452;BME280;24231;52.514;13.438;2023-04-12T03:21:15;100597.08;;;8.15;54.57
38452;BME280;24231;52.514;13.438;2023-04-12T03:23:42;100598.21;;;7.23;56.89
38452;BME280;24231;52.514;13.438;2023-04-12T03:26:10;100598.32;;;7.36;57.42
38452;BME280;24231;52.514;13.438;2023-04-12T03:28:37;100593.56;;;8.36;54.25
38452;BME280;24231;52.514;13.438;2023-04-12T03:31:05;100594.10;;;8.19;54.23
38452;BME280;24231;52.514;13.438;2023-04-12T03:33:32;100592.85;;;8.26;53.92
38452;BME280;24231;52.514;13.438;2023-04-12T03:36:00;100589.86;;;8.50;53.14
38452;BME280;24231;52.514;13.438;2023-04-12T03:38:26;100592.85;;;8.31;53.75
38452;BME280;24231;52.514;13.438;2023-04-12T03:40:58;100586.89;;;8.33;53.43
38452;BME280;24231;52.514;13.438;2023-04-12T03:43:26;100580.69;;;8.42;52.89
38452;BME280;24231;52.514;13.438;2023-04-12T03:46:03;100577.67;;;8.71;51.91
38452;BME280;24231;52.514;13.438;2023-04-12T03:48:44;100574.18;;;8.93;51.36
38452;BME280;24231;52.514;13.438;2023-04-12T03:51:11;100567.51;;;8.72;51.09
38452;BME280;24231;52.514;13.438;2023-04-12T03:53:38;100558.65;;;9.00;50.81
38452;BME280;24231;52.514;13.438;2023-04-12T03:56:07;100554.11;;;8.19;52.46
38452;BME280;24231;52.514;13.438;2023-04-12T03:58:35;100553.11;;;7.02;57.24
38452;BME280;24231;52.514;13.438;2023-04-12T04:01:02;100549.18;;;5.61;61.80
38452;BME280;24231;52.514;13.438;2023-04-12T04:03:30;100537.74;;;7.34;56.66
38452;BME280;24231;52.514;13.438;2023-04-12T04:05:57;100535.51;;;8.11;53.98
38452;BME280;24231;52.514;13.438;2023-04-12T04:08:25;100540.33;;;5.35;63.50
38452;BME280;24231;52.514;13.438;2023-04-12T04:10:52;100537.23;;;7.03;58.14
38452;BME280;24231;52.514;13.438;2023-04-12T04:13:19;100545.64;;;6.14;60.49
38452;BME280;24231;52.514;13.438;2023-04-12T04:15:50;100547.49;;;6.84;57.71
38452;BME280;24231;52.514;13.438;2023-04-12T04:18:18;100541.45;;;7.67;55.60
38452;BME280;24231;52.514;13.438;2023-04-12T04:20:46;100542.89;;;5.69;61.93
38452;BME280;24231;52.514;13.438;2023-04-12T04:23:13;100547.25;;;6.32;60.21
38452;BME280;24231;52.514;13.438;2023-04-12T04:25:40;100546.98;;;6.92;58.37
38452;BME280;24231;52.514;13.438;2023-04-12T04:28:08;100548.81;;;6.50;59.60
38452;BME280;24231;52.514;13.438;2023-04-12T04:30:35;100547.41;;;6.41;59.57
38452;BME280;24231;52.514;13.438;2023-04-12T04:33:03;100543.98;;;6.99;58.30
38452;BME280;24231;52.514;13.438;2023-04-12T04:35:30;100544.41;;;5.75;61.79
38452;BME280;24231;52.514;13.438;2023-04-12T04:37:57;100547.52;;;6.02;60.46
38452;BME280;24231;52.514;13.438;2023-04-12T04:40:25;100540.96;;;6.73;58.42
38452;BME280;24231;52.514;13.438;2023-04-12T04:42:52;100533.78;;;7.92;54.73
38452;BME280;24231;52.514;13.438;2023-04-12T04:45:21;100531.40;;;7.89;54.22
38452;BME280;24231;52.514;13.438;2023-04-12T04:47:48;100529.44;;;7.57;55.19
38452;BME280;24231;52.514;13.438;2023-04-12T04:50:15;100531.61;;;7.87;55.17
38452;BME280;24231;52.514;13.438;2023-04-12T04:52:43;100530.15;;;8.11;54.24
38452;BME280;24231;52.514;13.438;2023-04-12T04:55:10;100528.10;;;8.04;54.69
38452;BME280;24231;52.514;13.438;2023-04-12T04:57:37;100524.12;;;8.29;53.07
38452;BME280;24231;52.514;13.438;2023-04-12T05:00:05;100520.36;;;9.68;49.52
38452;BME280;24231;52.514;13.438;2023-04-12T05:02:33;100516.54;;;10.41;47.31
38452;BME280;24231;52.514;13.438;2023-04-12T05:05:01;100512.47;;;10.27;47.42
38452;BME280;24231;52.514;13.438;2023-04-12T05:07:28;100512.90;;;10.46;46.70
38452;BME280;24231;52.514;13.438;2023-04-12T05:09:55;100510.90;;;10.86;45.88
38452;BME280;24231;52.514;13.438;2023-04-12T05:12:23;100509.86;;;11.12;44.77
38452;BME280;24231;52.514;13.438;2023-04-12T05:14:50;100511.84;;;11.15;44.99
38452;BME280;24231;52.514;13.438;2023-04-12T05:17:17;100511.76;;;12.08;42.18
38452;BME280;24231;52.514;13.438;2023-04-12T05:19:44;100508.76;;;11.77;43.05
38452;BME280;24231;52.514;13.438;2023-04-12T05:22:12;100510.04;;;12.08;42.48
38452;BME280;24231;52.514;13.438;2023-04-12T05:24:39;100507.97;;;12.68;41.65
38452;BME280;24231;52.514;13.438;2023-04-12T05:27:07;100514.25;;;10.49;46.24
38452;BME280;24231;52.514;13.438;2023-04-12T05:29:34;100509.81;;;11.79;43.10
38452;BME280;24231;52.514;13.438;2023-04-12T05:32:01;100506.72;;;12.43;40.99
38452;BME280;24231;52.514;13.438;2023-04-12T05:34:28;100499.07;;;12.66;40.70
38452;BME280;24231;52.514;13.438;2023-04-12T05:36:55;100497.41;;;11.99;42.60
38452;BME280;24231;52.514;13.438;2023-04-12T05:39:22;100494.48;;;12.06;41.93
38452;BME280;24231;52.514;13.438;2023-04-12T05:41:50;100491.86;;;12.62;40.79
38452;BME280;24231;52.514;13.438;2023-04-12T05:44:17;100490.26;;;12.16;40.82
38452;BME280;24231;52.514;13.438;2023-04-12T05:46:45;100485.70;;;12.62;40.44
38452;BME280;24231;52.514;13.438;2023-04-12T05:49:12;100477.42;;;13.02;39.16
38452;BME280;24231;52.514;13.438;2023-04-12T05:51:40;100477.79;;;14.25;36.74
38452;BME280;24231;52.514;13.438;2023-04-12T05:54:07;100474.92;;;14.21;36.90
38452;BME280;24231;52.514;13.438;2023-04-12T05:56:34;100467.65;;;13.96;37.62
38452;BME280;24231;52.514;13.438;2023-04-12T05:59:01;100459.92;;;12.98;39.48
38452;BME280;24231;52.514;13.438;2023-04-12T06:01:29;100461.60;;;11.70;41.36
38452;BME280;24231;52.514;13.438;2023-04-12T06:03:57;100458.74;;;12.05;41.33
38452;BME280;24231;52.514;13.438;2023-04-12T06:06:24;100451.76;;;12.57;40.07
38452;BME280;24231;52.514;13.438;2023-04-12T06:08:51;100450.84;;;12.19;40.99
38452;BME280;24231;52.514;13.438;2023-04-12T06:11:18;100439.45;;;12.93;39.69
38452;BME280;24231;52.514;13.438;2023-04-12T06:13:45;100432.71;;;13.70;38.18
38452;BME280;24231;52.514;13.438;2023-04-12T06:16:12;100426.48;;;14.61;36.54
38452;BME280;24231;52.514;13.438;2023-04-12T06:18:39;100428.38;;;13.48;38.18
38452;BME280;24231;52.514;13.438;2023-04-12T06:21:06;100428.16;;;13.94;37.54
38452;BME280;24231;52.514;13.438;2023-04-12T06:23:33;100424.84;;;13.85;37.16
38452;BME280;24231;52.514;13.438;2023-04-12T06:26:00;100422.75;;;13.95;37.22
38452;BME280;24231;52.514;13.438;2023-04-12T06:28:27;100412.89;;;13.91;37.15
38452;BME280;24231;52.514;13.438;2023-04-12T06:30:54;100407.27;;;15.38;34.88
38452;BME280;24231;52.514;13.438;2023-04-12T06:33:21;100413.79;;;13.24;38.34
38452;BME280;24231;52.514;13.438;2023-04-12T06:35:49;100404.66;;;14.64;36.53
38452;BME280;24231;52.514;13.438;2023-04-12T06:38:17;100407.16;;;11.47;42.36
38452;BME280;24231;52.514;13.438;2023-04-12T06:40:54;100405.85;;;13.35;39.51
38452;BME280;24231;52.514;13.438;2023-04-12T06:43:21;100407.53;;;11.50;42.97
38452;BME280;24231;52.514;13.438;2023-04-12T06:45:48;100400.30;;;10.74;44.61
38452;BME280;24231;52.514;13.438;2023-04-12T06:48:15;100397.93;;;13.49;39.77
38452;BME280;24231;52.514;13.438;2023-04-12T06:50:43;100391.95;;;14.47;37.64
38452;BME280;24231;52.514;13.438;2023-04-12T06:53:10;100389.45;;;15.15;35.95
38452;BME280;24231;52.514;13.438;2023-04-12T06:55:38;100389.84;;;13.95;38.23
38452;BME280;24231;52.514;13.438;2023-04-12T06:58:05;100384.34;;;15.15;36.39
38452;BME280;24231;52.514;13.438;2023-04-12T07:00:31;100381.79;;;14.88;36.52
38452;BME280;24231;52.514;13.438;2023-04-12T07:02:58;100379.16;;;15.52;35.44
38452;BME280;24231;52.514;13.438;2023-04-12T07:05:25;100379.29;;;15.57;35.51
38452;BME280;24231;52.514;13.438;2023-04-12T07:07:52;100374.02;;;16.74;33.31
38452;BME280;24231;52.514;13.438;2023-04-12T07:10:19;100371.18;;;15.79;34.89
38452;BME280;24231;52.514;13.438;2023-04-12T07:12:46;100366.50;;;16.04;34.31
38452;BME280;24231;52.514;13.438;2023-04-12T07:15:13;100364.88;;;16.82;33.37
38452;BME280;24231;52.514;13.438;2023-04-12T07:17:41;100362.31;;;16.14;34.14
38452;BME280;24231;52.514;13.438;2023-04-12T07:20:08;100362.01;;;15.78;34.46
38452;BME280;24231;52.514;13.438;2023-04-12T07:22:35;100351.61;;;16.07;34.25
38452;BME280;24231;52.514;13.438;2023-04-12T07:25:03;100351.54;;;17.08;32.33
38452;BME280;24231;52.514;13.438;2023-04-12T07:27:32;100345.35;;;15.50;34.69
38452;BME280;24231;52.514;13.438;2023-04-12T07:29:59;100342.41;;;16.51;33.14
38452;BME280;24231;52.514;13.438;2023-04-12T07:32:26;100345.63;;;15.01;35.20
38452;BME280;24231;52.514;13.438;2023-04-12T07:34:53;100342.09;;;15.44;34.38
38452;BME280;24231;52.514;13.438;2023-04-12T07:37:21;100339.09;;;15.41;34.34
38452;BME280;24231;52.514;13.438;2023-04-12T07:39:48;100331.90;;;15.35;34.46
38452;BME280;24231;52.514;13.438;2023-04-12T07:42:15;100331.14;;;15.93;33.61
38452;BME280;24231;52.514;13.438;2023-04-12T07:44:53;100328.73;;;15.73;34.41
38452;BME280;24231;52.514;13.438;2023-04-12T07:47:20;100323.27;;;15.22;35.38
38452;BME280;24231;52.514;13.438;2023-04-12T07:49:47;100317.83;;;15.33;34.49
38452;BME280;24231;52.514;13.438;2023-04-12T07:52:14;100316.68;;;16.02;33.68
38452;BME280;24231;52.514;13.438;2023-04-12T07:54:41;100312.70;;;16.27;33.38
38452;BME280;24231;52.514;13.438;2023-04-12T07:57:08;100313.64;;;15.62;33.80
38452;BME280;24231;52.514;13.438;2023-04-12T07:59:35;100305.15;;;14.89;34.75
38452;BME280;24231;52.514;13.438;2023-04-12T08:02:02;100299.08;;;16.13;33.12
38452;BME280;24231;52.514;13.438;2023-04-12T08:04:29;100291.89;;;16.30;32.34
38452;BME280;24231;52.514;13.438;2023-04-12T08:06:56;100289.11;;;17.03;31.08
38452;BME280;24231;52.514;13.438;2023-04-12T08:09:23;100296.50;;;15.38;33.13
38452;BME280;24231;52.514;13.438;2023-04-12T08:11:51;100286.27;;;15.69;32.63
38452;BME280;24231;52.514;13.438;2023-04-12T08:14:18;100289.06;;;15.18;33.19
38452;BME280;24231;52.514;13.438;2023-04-12T08:16:45;100278.15;;;15.75;32.29
38452;BME280;24231;52.514;13.438;2023-04-12T08:19:12;100272.19;;;15.64;32.59
38452;BME280;24231;52.514;13.438;2023-04-12T08:21:39;100273.16;;;16.16;32.11
38452;BME280;24231;52.514;13.438;2023-04-12T08:24:07;100272.10;;;15.74;32.36
38452;BME280;24231;52.514;13.438;2023-04-12T08:26:34;100275.53;;;15.07;33.15
38452;BME280;24231;52.514;13.438;2023-04-12T08:29:01;100258.27;;;15.65;32.18
38452;BME280;24231;52.514;13.438;2023-04-12T08:31:28;100257.57;;;15.95;31.45
38452;BME280;24231;52.514;13.438;2023-04-12T08:33:55;100254.82;;;16.81;30.58
38452;BME280;24231;52.514;13.438;2023-04-12T08:36:23;100252.71;;;15.54;31.95
38452;BME280;24231;52.514;13.438;2023-04-12T08:38:50;100257.78;;;13.34;34.29
38452;BME280;24231;52.514;13.438;2023-04-12T08:41:17;100245.70;;;15.90;31.19
38452;BME280;24231;52.514;13.438;2023-04-12T08:43:45;100248.62;;;14.10;33.47
38452;BME280;24231;52.514;13.438;2023-04-12T08:46:13;100235.10;;;16.04;31.11
38452;BME280;24231;52.514;13.438;2023-04-12T08:48:42;100235.84;;;16.26;30.38
38452;BME280;24231;52.514;13.438;2023-04-12T08:51:12;100229.36;;;17.34;29.42
38452;BME280;24231;52.514;13.438;2023-04-12T08:53:40;100226.79;;;16.85;29.02
38452;BME280;24231;52.514;13.438;2023-04-12T08:56:09;100229.21;;;15.75;30.88
38452;BME280;24231;52.514;13.438;2023-04-12T08:58:38;100222.55;;;16.04;30.32
38452;BME280;24231;52.514;13.438;2023-04-12T09:01:09;100215.68;;;15.69;30.14
38452;BME280;24231;52.514;13.438;2023-04-12T09:03:37;100211.00;;;15.64;30.30
38452;BME280;24231;52.514;13.438;2023-04-12T09:06:05;100210.00;;;15.72;29.73
38452;BME280;24231;52.514;13.438;2023-04-12T09:08:32;100202.86;;;15.96;29.97
38452;BME280;24231;52.514;13.438;2023-04-12T09:11:01;100201.84;;;15.09;30.18
38452;BME280;24231;52.514;13.438;2023-04-12T09:13:31;100198.62;;;15.11;29.58
38452;BME280;24231;52.514;13.438;2023-04-12T09:15:59;100186.07;;;15.51;29.23
38452;BME280;24231;52.514;13.438;2023-04-12T09:18:27;100193.74;;;14.83;29.85
38452;BME280;24231;52.514;13.438;2023-04-12T09:21:06;100187.29;;;15.24;29.00
38452;BME280;24231;52.514;13.438;2023-04-12T09:23:34;100184.44;;;15.66;29.07
38452;BME280;24231;52.514;13.438;2023-04-12T09:26:02;100192.29;;;15.45;28.61
38452;BME280;24231;52.514;13.438;2023-04-12T09:28:30;100178.67;;;14.39;29.37
38452;BME280;24231;52.514;13.438;2023-04-12T09:30:58;100180.17;;;14.79;29.32
38452;BME280;24231;52.514;13.438;2023-04-12T09:33:33;100181.42;;;15.27;28.83
38452;BME280;24231;52.514;13.438;2023-04-12T09:36:01;100168.41;;;15.43;27.90
38452;BME280;24231;52.514;13.438;2023-04-12T09:38:28;100168.92;;;15.06;28.50
38452;BME280;24231;52.514;13.438;2023-04-12T09:40:56;100160.66;;;15.12;29.05
38452;BME280;24231;52.514;13.438;2023-04-12T09:43:41;100146.56;;;15.28;28.28
38452;BME280;24231;52.514;13.438;2023-04-12T09:46:10;100144.64;;;15.13;28.91
38452;BME280;24231;52.514;13.438;2023-04-12T09:48:38;100142.39;;;15.23;28.35
38452;BME280;24231;52.514;13.438;2023-04-12T09:51:05;100138.98;;;15.08;28.41
38452;BME280;24231;52.514;13.438;2023-04-12T09:53:34;100118.56;;;15.20;28.09
38452;BME280;24231;52.514;13.438;2023-04-12T09:56:05;100120.53;;;15.29;27.94
38452;BME280;24231;52.514;13.438;2023-04-12T09:58:35;100129.57;;;14.58;29.21
38452;BME280;24231;52.514;13.438;2023-04-12T10:01:05;100110.18;;;15.22;28.49
38452;BME280;24231;52.514;13.438;2023-04-12T10:03:35;100102.81;;;14.82;28.87
38452;BME280;24231;52.514;13.438;2023-04-12T10:06:02;100093.24;;;15.18;28.87
38452;BME280;24231;52.514;13.438;2023-04-12T10:08:29;100099.68;;;14.78;28.77
38452;BME280;24231;52.514;13.438;2023-04-12T10:10:57;100082.36;;;15.18;28.54
38452;BME280;24231;52.514;13.438;2023-04-12T10:13:25;100082.46;;;15.41;28.30
38452;BME280;24231;52.514;13.438;2023-04-12T10:15:54;100073.81;;;14.61;29.58
38452;BME280;24231;52.514;13.438;2023-04-12T10:18:21;100080.73;;;13.80;30.75
38452;BME280;24231;52.514;13.438;2023-04-12T10:20:49;100065.09;;;14.86;28.67
38452;BME280;24231;52.514;13.438;2023-04-12T10:23:17;100055.32;;;15.01;28.47
38452;BME280;24231;52.514;13.438;2023-04-12T10:25:46;100054.19;;;14.47;29.10
38452;BME280;24231;52.514;13.438;2023-04-12T10:28:15;100054.21;;;14.24;29.84
38452;BME280;24231;52.514;13.438;2023-04-12T10:30:43;100054.75;;;14.50;28.88
38452;BME280;24231;52.514;13.438;2023-04-12T10:33:13;100035.52;;;14.44;29.21
38452;BME280;24231;52.514;13.438;2023-04-12T10:35:57;100039.46;;;14.28;29.41
38452;BME280;24231;52.514;13.438;2023-04-12T10:38:26;100031.81;;;14.32;29.34
38452;BME280;24231;52.514;13.438;2023-04-12T10:41:15;100029.13;;;14.34;29.21
38452;BME280;24231;52.514;13.438;2023-04-12T10:43:44;100024.42;;;14.10;29.73
38452;BME280;24231;52.514;13.438;2023-04-12T10:47:59;100012.23;;;14.16;29.27
38452;BME280;24231;52.514;13.438;2023-04-12T10:50:27;100014.65;;;14.03;30.50
38452;BME280;24231;52.514;13.438;2023-04-12T10:53:20;100015.99;;;14.23;29.84
38452;BME280;24231;52.514;13.438;2023-04-12T10:55:48;100002.98;;;14.35;29.34
38452;BME280;24231;52.514;13.438;2023-04-12T11:01:09;100000.41;;;14.50;29.59
38452;BME280;24231;52.514;13.438;2023-04-12T11:03:36;99987.42;;;14.08;29.82
38452;BME280;24231;52.514;13.438;2023-04-12T11:06:41;99987.83;;;13.64;29.86
38452;BME280;24231;52.514;13.438;2023-04-12T11:09:19;99974.88;;;14.09;30.22
38452;BME280;24231;52.514;13.438;2023-04-12T11:11:47;99973.95;;;13.58;30.84
38452;BME280;24231;52.514;13.438;2023-04-12T11:14:15;99971.52;;;13.76;30.88
38452;BME280;24231;52.514;13.438;2023-04-12T11:17:53;99958.67;;;15.54;28.21
38452;BME280;24231;52.514;13.438;2023-04-12T11:20:20;99969.58;;;13.77;29.95
38452;BME280;24231;52.514;13.438;2023-04-12T11:22:50;99969.14;;;13.61;30.35
38452;BME280;24231;52.514;13.438;2023-04-12T11:25:19;99955.91;;;13.66;30.33
38452;BME280;24231;52.514;13.438;2023-04-12T11:27:50;99947.67;;;13.68;30.68
38452;BME280;24231;52.514;13.438;2023-04-12T11:30:24;99946.48;;;14.22;29.94
38452;BME280;24231;52.514;13.438;2023-04-12T11:32:51;99940.21;;;14.30;30.19
38452;BME280;24231;52.514;13.438;2023-04-12T11:35:18;99941.68;;;14.13;30.44
38452;BME280;24231;52.514;13.438;2023-04-12T11:37:46;99940.26;;;14.07;30.46
38452;BME280;24231;52.514;13.438;2023-04-12T11:40:13;99929.02;;;13.68;30.68
38452;BME280;24231;52.514;13.438;2023-04-12T11:42:41;99934.86;;;13.60;31.10
38452;BME280;24231;52.514;13.438;2023-04-12T11:45:09;99934.15;;;13.61;31.27
38452;BME280;24231;52.514;13.438;2023-04-12T11:47:41;99925.09;;;13.63;31.06
38452;BME280;24231;52.514;13.438;2023-04-12T11:50:09;99926.47;;;13.58;31.31
38452;BME280;24231;52.514;13.438;2023-04-12T11:52:36;99921.99;;;13.42;31.12
38452;BME280;24231;52.514;13.438;2023-04-12T11:55:05;99911.81;;;14.02;30.51
38452;BME280;24231;52.514;13.438;2023-04-12T11:57:42;99903.00;;;14.04;29.95
38452;BME280;24231;52.514;13.438;2023-04-12T12:00:23;99898.12;;;13.22;31.53
38452;BME280;24231;52.514;13.438;2023-04-12T12:02:50;99901.38;;;13.02;31.36
38452;BME280;24231;52.514;13.438;2023-04-12T12:05:17;99896.02;;;13.19;30.76
38452;BME280;24231;52.514;13.438;2023-04-12T12:07:45;99886.86;;;13.31;30.63
38452;BME280;24231;52.514;13.438;2023-04-12T12:10:13;99885.34;;;13.02;31.07
38452;BME280;24231;52.514;13.438;2023-04-12T12:12:42;99868.66;;;13.11;30.91
38452;BME280;24231;52.514;13.438;2023-04-12T12:15:13;99871.39;;;13.21;31.07
38452;BME280;24231;52.514;13.438;2023-04-12T12:17:40;99863.70;;;13.00;31.43
38452;BME280;24231;52.514;13.438;2023-04-12T12:20:18;99844.38;;;13.00;31.58
38452;BME280;24231;52.514;13.438;2023-04-12T12:22:46;99856.10;;;12.85;31.91
38452;BME280;24231;52.514;13.438;2023-04-12T12:25:13;99842.89;;;13.17;31.43
38452;BME280;24231;52.514;13.438;2023-04-12T12:27:40;99836.08;;;13.48;30.57
38452;BME280;24231;52.514;13.438;2023-04-12T12:30:08;99832.35;;;13.61;30.80
38452;BME280;24231;52.514;13.438;2023-04-12T12:32:36;99825.27;;;13.53;30.90
38452;BME280;24231;52.514;13.438;2023-04-12T12:35:08;99817.83;;;13.23;31.50
38452;BME280;24231;52.514;13.438;2023-04-12T12:37:36;99824.58;;;13.26;31.50
38452;BME280;24231;52.514;13.438;2023-04-12T12:40:04;99817.59;;;13.31;31.93
38452;BME280;24231;52.514;13.438;2023-04-12T12:42:33;99805.39;;;13.49;30.99
38452;BME280;24231;52.514;13.438;2023-04-12T12:45:00;99793.11;;;13.66;30.67
38452;BME280;24231;52.514;13.438;2023-04-12T12:47:28;99794.40;;;13.91;30.73
38452;BME280;24231;52.514;13.438;2023-04-12T12:49:55;99793.72;;;13.88;30.25
38452;BME280;24231;52.514;13.438;2023-04-12T12:52:22;99802.93;;;13.74;30.78
38452;BME280;24231;52.514;13.438;2023-04-12T12:54:49;99792.68;;;13.47;31.32
38452;BME280;24231;52.514;13.438;2023-04-12T12:57:16;99793.89;;;13.75;30.98
38452;BME280;24231;52.514;13.438;2023-04-12T12:59:43;99786.26;;;13.73;30.75